Main page
METAR-TAF:

METAR-TAF

Airports :

Del Rio International Airport

Del Rio, Texas, United States

latitude: 29-22-29N, longitude: 100-55-25W, elevation: 997 ft

Current weather observation

The report was made 21 minutes ago, at 04:53 UTC
Wind 7 mph from the East
Temperature 64°F
Humidity 32%
Pressure 29.72 in. Hg
Visibility: 10 miles
Clear sky

METAR: KDRT 150453Z AUTO 10006KT 10SM CLR 18/01 A2972 RMK AO2 SLP051 T01780011

Time: 23:14 (05:14 UTC)

Forecast

The report was made 5 hours and 49 minutes ago, at 23:25 UTC
Forecast valid from 15 at 00 UTC to 15 at 24 UTC
Wind 6 mph from the Southeast
Visibility: 6 miles
Clear sky
From 15 at 0200 UTC
Wind 6 mph from the East
Visibility: 6 miles
Clear sky
From 15 at 1600 UTC
Wind 7 mph from the South/Southeast
Visibility: 6 miles
Clear sky

TAF: KDRT 142325Z 1500/1524 13005KT P6SM SKC FM150200 10005KT P6SM SKC FM151600 15006KT P6SM SKC

Weather observations and forecasts of more than 4000 airports (METAR and TAF reports).

The available stations are represented by yellow and red dots on the map.

Hover mouse over dot to see the name of the station.

Then click to see weather observations and forecasts.

To change the map : click on the green buttons with a black cross to zoom in, on the green button with a dash to zoom out, or on the green arrows for adjacent maps.


METAR-TAF: